Time;durP1;ratioP1;P1;durP2;ratioP2;P2;SDS_P1;SDS_P2;PMS_P1;PMS_P2;Temp;Humidity;BMP_temperature;BMP_pressure;BME280_temperature;BME280_humidity;BME280_pressure;Samples;Min_cycle;Max_cycle;Signal;HPM_P1;HPM_P2
2021/12/08 00:01:32;;;;;;;1.70;1.60;;;;;;;;;;1856985;76;26260;-34
2021/12/08 00:03:59;;;;;;;1.65;1.65;;;;;;;;;;1854504;76;26386;-34
2021/12/08 00:06:27;;;;;;;2.15;1.80;;;;;;;;;;1861614;76;26332;-35
2021/12/08 00:09:17;;;;;;;1.90;1.80;;;;;;;;;;1858752;76;26197;-34
2021/12/08 00:14:15;;;;;;;1.60;1.60;;;;;;;;;;1864949;76;26738;-33
2021/12/08 00:16:43;;;;;;;1.90;1.80;;;;;;;;;;1860242;76;26315;-33
2021/12/08 00:19:11;;;;;;;1.82;1.70;;;;;;;;;;1863561;76;26627;-34
2021/12/08 00:21:39;;;;;;;1.80;1.80;;;;;;;;;;1839400;76;26269;-33
2021/12/08 00:24:07;;;;;;;1.98;1.87;;;;;;;;;;1854854;76;26273;-35
2021/12/08 00:26:35;;;;;;;1.92;1.82;;;;;;;;;;1839618;76;26285;-33
2021/12/08 00:29:04;;;;;;;2.02;1.92;;;;;;;;;;1852732;76;26283;-34
2021/12/08 00:31:33;;;;;;;1.80;1.70;;;;;;;;;;1849018;76;26316;-35
2021/12/08 00:34:01;;;;;;;2.27;1.67;;;;;;;;;;1850227;76;26281;-34
2021/12/08 00:36:40;;;;;;;2.05;1.92;;;;;;;;;;1853967;76;26660;-33
2021/12/08 00:38:58;;;;;;;2.00;1.90;;;;;;;;;;1836608;77;26301;-35
2021/12/08 00:41:26;;;;;;;1.70;1.70;;;;;;;;;;1843124;77;26331;-33
2021/12/08 00:43:53;;;;;;;1.65;1.60;;;;;;;;;;1851087;77;26385;-36
2021/12/08 00:46:20;;;;;;;1.77;1.77;;;;;;;;;;1853213;77;26648;-33
2021/12/08 00:48:49;;;;;;;1.95;1.85;;;;;;;;;;1852652;76;26285;-34
2021/12/08 00:51:20;;;;;;;1.65;1.65;;;;;;;;;;1852753;77;26278;-33
2021/12/08 00:53:47;;;;;;;1.60;1.60;;;;;;;;;;1853450;77;26686;-33
2021/12/08 00:56:14;;;;;;;2.05;1.95;;;;;;;;;;1857768;76;26737;-34
2021/12/08 00:58:43;;;;;;;5.83;1.70;;;;;;;;;;1847300;77;26314;-34
2021/12/08 01:01:11;;;;;;;1.72;1.62;;;;;;;;;;1851029;77;26751;-34
2021/12/08 01:03:38;;;;;;;1.90;1.80;;;;;;;;;;1860153;75;26973;-33
2021/12/08 01:06:06;;;;;;;1.80;1.70;;;;;;;;;;1859191;77;26245;-34
2021/12/08 01:08:34;;;;;;;1.80;1.70;;;;;;;;;;1857075;76;26931;-34
2021/12/08 01:11:02;;;;;;;1.80;1.70;;;;;;;;;;1853948;76;26261;-34
2021/12/08 01:13:30;;;;;;;1.98;1.70;;;;;;;;;;1858652;76;26278;-34
2021/12/08 01:15:58;;;;;;;1.70;1.60;;;;;;;;;;1853073;77;26252;-34
2021/12/08 01:18:27;;;;;;;1.85;1.75;;;;;;;;;;1856562;76;26657;-37
2021/12/08 01:20:56;;;;;;;1.87;1.77;;;;;;;;;;1852613;77;26324;-34
2021/12/08 01:23:24;;;;;;;1.60;1.50;;;;;;;;;;1845811;77;26350;-33
2021/12/08 01:25:52;;;;;;;1.70;1.60;;;;;;;;;;1854484;76;26782;-34
2021/12/08 01:28:21;;;;;;;1.70;1.70;;;;;;;;;;1855190;76;26300;-33
2021/12/08 01:30:49;;;;;;;1.77;1.72;;;;;;;;;;1857642;76;26269;-34
2021/12/08 01:33:17;;;;;;;1.72;1.62;;;;;;;;;;1858592;76;26282;-34
2021/12/08 01:35:44;;;;;;;1.60;1.50;;;;;;;;;;1859120;77;26813;-36
2021/12/08 01:38:12;;;;;;;1.40;1.40;;;;;;;;;;1856197;76;26356;-34
2021/12/08 01:40:39;;;;;;;1.67;1.57;;;;;;;;;;1859654;77;26296;-33
2021/12/08 01:43:22;;;;;;;1.50;1.50;;;;;;;;;;1854718;77;26270;-36
2021/12/08 01:48:22;;;;;;;1.57;1.50;;;;;;;;;;1859709;77;26785;-33
2021/12/08 01:50:51;;;;;;;1.70;1.60;;;;;;;;;;1851262;77;26364;-35
2021/12/08 01:53:19;;;;;;;1.60;1.40;;;;;;;;;;1851746;76;26318;-34
2021/12/08 01:55:47;;;;;;;1.57;1.50;;;;;;;;;;1849962;76;26258;-34
2021/12/08 01:58:15;;;;;;;1.40;1.30;;;;;;;;;;1846573;77;26265;-34
2021/12/08 02:00:46;;;;;;;1.72;1.62;;;;;;;;;;1854543;77;26246;-34
2021/12/08 02:03:14;;;;;;;1.67;1.57;;;;;;;;;;1851003;76;27335;-35
2021/12/08 02:05:42;;;;;;;1.55;1.55;;;;;;;;;;1848181;77;26331;-36
2021/12/08 02:08:10;;;;;;;1.77;1.67;;;;;;;;;;1855748;76;26225;-34
2021/12/08 02:10:38;;;;;;;1.57;1.52;;;;;;;;;;1849123;77;26769;-35
2021/12/08 02:13:06;;;;;;;1.70;1.60;;;;;;;;;;1851268;76;26287;-34
2021/12/08 02:15:35;;;;;;;2.42;1.90;;;;;;;;;;1857546;76;26278;-34
2021/12/08 02:18:04;;;;;;;1.65;1.60;;;;;;;;;;1849238;76;26297;-34
2021/12/08 02:20:31;;;;;;;1.57;1.57;;;;;;;;;;1844430;76;26265;-34
2021/12/08 02:22:58;;;;;;;1.55;1.55;;;;;;;;;;1847722;77;26300;-37
2021/12/08 02:25:27;;;;;;;1.80;1.70;;;;;;;;;;1844550;76;26775;-34
2021/12/08 02:27:55;;;;;;;1.45;1.45;;;;;;;;;;1841175;76;26332;-34
2021/12/08 02:46:53;;;;;;;1.60;1.50;;;;;;;;;;1852192;77;26358;-33
2021/12/08 02:49:18;;;;;;;1.85;1.55;;;;;;;;;;1853902;76;26729;-34
2021/12/08 02:51:46;;;;;;;2.05;1.60;;;;;;;;;;1854065;77;26293;-33
2021/12/08 02:54:13;;;;;;;1.60;1.50;;;;;;;;;;1857470;76;26253;-35
2021/12/08 02:56:41;;;;;;;1.47;1.47;;;;;;;;;;1857101;76;26305;-34
2021/12/08 02:59:08;;;;;;;1.40;1.40;;;;;;;;;;1854596;77;26676;-35
2021/12/08 03:01:36;;;;;;;1.30;1.30;;;;;;;;;;1857465;77;26265;-33
2021/12/08 03:04:05;;;;;;;1.30;1.30;;;;;;;;;;1857465;76;26764;-36
2021/12/08 03:06:32;;;;;;;1.45;1.37;;;;;;;;;;1857720;77;26729;-33
2021/12/08 03:09:00;;;;;;;1.30;1.30;;;;;;;;;;1857812;77;26323;-33
2021/12/08 03:11:27;;;;;;;1.20;1.20;;;;;;;;;;1855907;76;26729;-33
2021/12/08 03:13:59;;;;;;;1.45;1.40;;;;;;;;;;1857976;77;26205;-34
2021/12/08 03:16:26;;;;;;;1.45;1.37;;;;;;;;;;1856068;77;26339;-33
2021/12/08 03:18:54;;;;;;;1.52;1.42;;;;;;;;;;1856942;76;26334;-34
2021/12/08 03:21:28;;;;;;;1.20;1.20;;;;;;;;;;1856981;77;26281;-33
2021/12/08 03:24:07;;;;;;;1.30;1.30;;;;;;;;;;1855079;77;26783;-34
2021/12/08 03:26:27;;;;;;;1.62;1.35;;;;;;;;;;1854194;76;26763;-34
2021/12/08 03:28:58;;;;;;;1.35;1.35;;;;;;;;;;1849354;76;26989;-34
2021/12/08 03:31:20;;;;;;;1.30;1.30;;;;;;;;;;1856574;76;26539;-36
2021/12/08 03:33:47;;;;;;;1.40;1.30;;;;;;;;;;1857638;76;26824;-35
2021/12/08 03:36:14;;;;;;;1.20;1.20;;;;;;;;;;1857557;77;26284;-34
2021/12/08 03:38:45;;;;;;;1.52;1.50;;;;;;;;;;1858318;76;26210;-36
2021/12/08 03:41:11;;;;;;;1.25;1.20;;;;;;;;;;1867484;76;26364;-34
2021/12/08 03:43:39;;;;;;;1.17;1.15;;;;;;;;;;1860717;76;26253;-34
2021/12/08 03:46:11;;;;;;;1.15;1.15;;;;;;;;;;1860877;76;26270;-34
2021/12/08 03:48:43;;;;;;;1.22;1.22;;;;;;;;;;1868036;76;26761;-34
2021/12/08 03:51:06;;;;;;;1.27;1.27;;;;;;;;;;1857568;76;26315;-35
2021/12/08 03:53:34;;;;;;;1.20;1.20;;;;;;;;;;1859602;76;26617;-35
2021/12/08 03:56:01;;;;;;;1.50;1.40;;;;;;;;;;1847955;76;26338;-34
2021/12/08 03:58:28;;;;;;;1.57;1.47;;;;;;;;;;1856714;76;26370;-33
2021/12/08 04:00:57;;;;;;;1.00;1.00;;;;;;;;;;1859628;76;26284;-36
2021/12/08 04:03:26;;;;;;;1.20;1.20;;;;;;;;;;1861154;76;26312;-33
2021/12/08 04:06:01;;;;;;;1.02;1.02;;;;;;;;;;1861392;76;26548;-34
2021/12/08 04:08:32;;;;;;;1.10;1.10;;;;;;;;;;1865124;76;26254;-34
2021/12/08 04:11:00;;;;;;;1.20;1.10;;;;;;;;;;1864001;76;26313;-34
2021/12/08 04:13:35;;;;;;;1.30;1.20;;;;;;;;;;1867497;76;26315;-34
2021/12/08 04:16:02;;;;;;;1.17;1.17;;;;;;;;;;1858205;76;26646;-34
2021/12/08 04:18:30;;;;;;;1.30;1.20;;;;;;;;;;1863912;76;26302;-34
2021/12/08 04:20:59;;;;;;;1.10;1.10;;;;;;;;;;1873727;76;27601;-35
2021/12/08 04:23:28;;;;;;;1.15;1.15;;;;;;;;;;1870996;76;26266;-34
2021/12/08 04:25:56;;;;;;;1.00;1.00;;;;;;;;;;1861934;76;26235;-34
2021/12/08 04:28:25;;;;;;;1.10;1.10;;;;;;;;;;1858111;76;26744;-34
2021/12/08 04:30:57;;;;;;;1.12;1.12;;;;;;;;;;1864149;76;26815;-36
2021/12/08 04:33:25;;;;;;;1.00;1.00;;;;;;;;;;1859144;76;26253;-34
2021/12/08 04:35:53;;;;;;;1.10;1.10;;;;;;;;;;1864175;76;26282;-34
2021/12/08 04:38:25;;;;;;;1.00;1.00;;;;;;;;;;1865465;76;26245;-34
2021/12/08 04:43:39;;;;;;;2.05;1.10;;;;;;;;;;1860073;77;26324;-36
2021/12/08 04:46:09;;;;;;;1.05;1.05;;;;;;;;;;1861888;77;27008;-34
2021/12/08 05:04:42;;;;;;;0.80;0.80;;;;;;;;;;1842222;76;26339;-34
2021/12/08 05:07:13;;;;;;;0.80;0.80;;;;;;;;;;1821917;77;26335;-35
2021/12/08 05:09:30;;;;;;;1.00;1.00;;;;;;;;;;1840113;76;26736;-34
2021/12/08 05:12:00;;;;;;;0.88;0.88;;;;;;;;;;1854862;77;26250;-36
2021/12/08 05:14:29;;;;;;;1.10;1.10;;;;;;;;;;1850141;76;26701;-34
2021/12/08 05:17:01;;;;;;;0.80;0.80;;;;;;;;;;1855438;77;26255;-36
2021/12/08 05:19:30;;;;;;;0.93;0.93;;;;;;;;;;1830458;76;26291;-35
2021/12/08 05:21:58;;;;;;;0.90;0.90;;;;;;;;;;1859608;76;26194;-35
2021/12/08 05:24:32;;;;;;;0.80;0.80;;;;;;;;;;1852250;76;26246;-34
2021/12/08 05:27:00;;;;;;;0.90;0.90;;;;;;;;;;1842003;76;26285;-35
2021/12/08 05:29:29;;;;;;;0.90;0.90;;;;;;;;;;1846337;76;26370;-35
2021/12/08 05:31:58;;;;;;;1.77;0.93;;;;;;;;;;1832625;76;26329;-34
2021/12/08 05:34:27;;;;;;;2.60;0.80;;;;;;;;;;1850439;76;26289;-35
2021/12/08 05:36:55;;;;;;;1.57;0.98;;;;;;;;;;1848661;76;26278;-35
2021/12/08 05:39:24;;;;;;;2.00;0.90;;;;;;;;;;1837605;76;26770;-34
2021/12/08 05:41:52;;;;;;;1.25;1.10;;;;;;;;;;1837699;76;26376;-35
2021/12/08 05:44:20;;;;;;;1.52;1.00;;;;;;;;;;1849413;76;26713;-37
2021/12/08 05:46:49;;;;;;;0.70;0.70;;;;;;;;;;1839332;76;26352;-36
2021/12/08 05:49:18;;;;;;;3.25;0.90;;;;;;;;;;1847958;76;26379;-36
2021/12/08 05:51:47;;;;;;;1.00;1.00;;;;;;;;;;1843073;76;26270;-34
2021/12/08 05:54:15;;;;;;;1.95;0.70;;;;;;;;;;1840032;76;26271;-35
2021/12/08 05:56:44;;;;;;;1.00;1.00;;;;;;;;;;1836069;76;26343;-34
2021/12/08 05:59:12;;;;;;;0.65;0.65;;;;;;;;;;1838926;76;26300;-34
2021/12/08 06:01:41;;;;;;;1.87;0.80;;;;;;;;;;1844826;76;26307;-35
2021/12/08 06:04:09;;;;;;;1.72;0.80;;;;;;;;;;1841938;76;26299;-36
2021/12/08 06:06:37;;;;;;;1.00;0.72;;;;;;;;;;1834496;76;26343;-34
2021/12/08 06:09:05;;;;;;;0.88;0.80;;;;;;;;;;1833425;76;26305;-34
2021/12/08 06:11:33;;;;;;;2.05;0.80;;;;;;;;;;1840501;76;26300;-36
2021/12/08 06:14:01;;;;;;;2.92;0.80;;;;;;;;;;1841145;76;26764;-36
2021/12/08 06:16:29;;;;;;;0.70;0.70;;;;;;;;;;1840767;76;26321;-34
2021/12/08 06:18:57;;;;;;;5.30;0.82;;;;;;;;;;1835331;76;26695;-34
2021/12/08 06:21:26;;;;;;;0.70;0.70;;;;;;;;;;1837515;76;26254;-34
2021/12/08 06:23:53;;;;;;;0.80;0.80;;;;;;;;;;1839599;76;26379;-34
2021/12/08 06:26:22;;;;;;;0.90;0.90;;;;;;;;;;1844666;76;26284;-35
2021/12/08 06:28:50;;;;;;;1.05;0.68;;;;;;;;;;1845187;76;26706;-33
2021/12/08 06:31:18;;;;;;;0.80;0.80;;;;;;;;;;1848653;76;26250;-35
2021/12/08 06:33:46;;;;;;;0.70;0.70;;;;;;;;;;1843783;76;26727;-34
2021/12/08 06:36:15;;;;;;;1.35;0.70;;;;;;;;;;1837700;76;26341;-35
2021/12/08 06:38:43;;;;;;;1.02;0.80;;;;;;;;;;1843524;76;26279;-34
2021/12/08 06:41:12;;;;;;;0.78;0.78;;;;;;;;;;1844216;76;26658;-35
2021/12/08 06:43:40;;;;;;;0.90;0.90;;;;;;;;;;1845796;76;26680;-34
2021/12/08 06:46:08;;;;;;;0.70;0.70;;;;;;;;;;1846466;77;26491;-35
2021/12/08 06:48:37;;;;;;;1.07;0.80;;;;;;;;;;1835850;76;26760;-34
2021/12/08 06:51:13;;;;;;;0.68;0.68;;;;;;;;;;1841829;76;26351;-34
2021/12/08 06:53:42;;;;;;;0.65;0.65;;;;;;;;;;1839887;76;26354;-36
2021/12/08 06:56:14;;;;;;;0.85;0.70;;;;;;;;;;1828738;76;26348;-34
2021/12/08 06:58:43;;;;;;;0.70;0.70;;;;;;;;;;1839665;76;26343;-35
2021/12/08 07:01:33;;;;;;;2.75;0.70;;;;;;;;;;1843945;76;26318;-38
2021/12/08 07:04:14;;;;;;;0.70;0.70;;;;;;;;;;1833880;76;26303;-33
2021/12/08 07:09:22;;;;;;;3.80;0.62;;;;;;;;;;1781271;77;26399;-33
2021/12/08 07:11:51;;;;;;;1.32;0.90;;;;;;;;;;1840600;76;26277;-38
2021/12/08 07:14:18;;;;;;;1.42;0.62;;;;;;;;;;1842276;77;26282;-38
2021/12/08 07:16:47;;;;;;;0.70;0.70;;;;;;;;;;1840338;77;26260;-36
2021/12/08 07:19:27;;;;;;;0.70;0.70;;;;;;;;;;1831336;76;26261;-38
2021/12/08 07:21:52;;;;;;;0.68;0.68;;;;;;;;;;1839402;76;26366;-36
2021/12/08 07:24:21;;;;;;;0.60;0.60;;;;;;;;;;1846991;76;26744;-33
2021/12/08 07:26:50;;;;;;;0.70;0.70;;;;;;;;;;1850120;76;26330;-31
2021/12/08 07:29:19;;;;;;;0.70;0.70;;;;;;;;;;1842036;76;26297;-36
2021/12/08 07:31:52;;;;;;;1.98;1.00;;;;;;;;;;1838580;76;26255;-33
2021/12/08 07:34:20;;;;;;;0.70;0.70;;;;;;;;;;1855242;76;26762;-34
2021/12/08 07:36:49;;;;;;;0.68;0.68;;;;;;;;;;1861321;76;26261;-33
2021/12/08 07:39:17;;;;;;;1.35;0.60;;;;;;;;;;1846598;76;26265;-34
2021/12/08 07:41:48;;;;;;;4.40;0.70;;;;;;;;;;1864078;76;26297;-32
2021/12/08 07:44:16;;;;;;;0.50;0.50;;;;;;;;;;1849454;76;26261;-38
2021/12/08 07:46:46;;;;;;;0.60;0.60;;;;;;;;;;1846358;76;26318;-32
2021/12/08 07:49:15;;;;;;;0.60;0.60;;;;;;;;;;1846549;76;26276;-34
2021/12/08 07:51:49;;;;;;;0.65;0.65;;;;;;;;;;1853072;76;26342;-34
2021/12/08 07:54:17;;;;;;;0.78;0.78;;;;;;;;;;1855308;75;26257;-34
2021/12/08 07:56:46;;;;;;;1.55;0.70;;;;;;;;;;1863956;76;26262;-32
2021/12/08 07:59:15;;;;;;;0.70;0.70;;;;;;;;;;1863045;76;26382;-33
2021/12/08 08:01:45;;;;;;;0.70;0.70;;;;;;;;;;1857939;76;26384;-35
2021/12/08 08:06:46;;;;;;;0.55;0.55;;;;;;;;;;1910077;73;27861;-34
2021/12/08 08:09:17;;;;;;;0.60;0.60;;;;;;;;;;1889546;75;26293;-33
2021/12/08 08:11:47;;;;;;;0.60;0.60;;;;;;;;;;1880867;75;26771;-31
2021/12/08 08:14:19;;;;;;;0.82;0.70;;;;;;;;;;1901300;75;26267;-35
2021/12/08 08:16:44;;;;;;;0.57;0.57;;;;;;;;;;1890931;75;26483;-31
2021/12/08 08:19:15;;;;;;;8.60;0.90;;;;;;;;;;1910240;75;26267;-31
2021/12/08 08:21:44;;;;;;;0.68;0.68;;;;;;;;;;1884312;75;26387;-35
2021/12/08 08:24:12;;;;;;;0.70;0.70;;;;;;;;;;1889440;75;26308;-35
2021/12/08 08:26:40;;;;;;;1.25;0.60;;;;;;;;;;1886393;74;26238;-27
2021/12/08 08:29:09;;;;;;;0.72;0.72;;;;;;;;;;1887409;75;26689;-32
2021/12/08 08:31:43;;;;;;;0.57;0.57;;;;;;;;;;1889546;75;26529;-33
2021/12/08 08:34:11;;;;;;;0.70;0.70;;;;;;;;;;1888792;75;26247;-28
2021/12/08 08:36:40;;;;;;;0.62;0.62;;;;;;;;;;1896468;75;26312;-30
2021/12/08 08:39:17;;;;;;;0.70;0.70;;;;;;;;;;1882182;75;26250;-29
2021/12/08 08:41:46;;;;;;;0.50;0.50;;;;;;;;;;1893907;75;26643;-34
2021/12/08 08:44:15;;;;;;;0.70;0.70;;;;;;;;;;1876173;75;28113;-35
2021/12/08 08:46:45;;;;;;;0.70;0.70;;;;;;;;;;1886401;75;25961;-40
2021/12/08 08:49:14;;;;;;;0.50;0.50;;;;;;;;;;1893301;75;26308;-34
2021/12/08 08:51:45;;;;;;;0.55;0.55;;;;;;;;;;1891280;75;26469;-36
2021/12/08 08:54:20;;;;;;;0.50;0.50;;;;;;;;;;1901052;75;26323;-36
2021/12/08 08:56:47;;;;;;;0.50;0.50;;;;;;;;;;1885700;75;26773;-34
2021/12/08 08:59:15;;;;;;;0.60;0.60;;;;;;;;;;1887283;75;26786;-35
2021/12/08 09:01:44;;;;;;;0.50;0.50;;;;;;;;;;1883703;75;26544;-34
2021/12/08 09:04:13;;;;;;;0.60;0.60;;;;;;;;;;1870151;75;28156;-32
2021/12/08 09:06:43;;;;;;;2.45;0.60;;;;;;;;;;1866104;74;28260;-34
2021/12/08 09:09:19;;;;;;;2.00;0.60;;;;;;;;;;1851274;76;27279;-34
2021/12/08 09:11:47;;;;;;;0.50;0.50;;;;;;;;;;1850497;77;26268;-34
2021/12/08 09:14:22;;;;;;;1.27;0.53;;;;;;;;;;1848417;76;26289;-34
2021/12/08 09:16:53;;;;;;;0.40;0.40;;;;;;;;;;1829472;77;26223;-35
2021/12/08 09:19:21;;;;;;;0.60;0.60;;;;;;;;;;1828059;77;26973;-34
2021/12/08 09:21:55;;;;;;;0.60;0.60;;;;;;;;;;1812971;77;26710;-30
2021/12/08 09:24:22;;;;;;;1.13;0.60;;;;;;;;;;1813761;78;28488;-36
2021/12/08 09:26:51;;;;;;;0.60;0.60;;;;;;;;;;1835173;77;26330;-28
2021/12/08 09:29:29;;;;;;;0.60;0.60;;;;;;;;;;1814083;77;26356;-34
2021/12/08 09:31:58;;;;;;;2.27;0.60;;;;;;;;;;1834073;77;26220;-36
2021/12/08 09:34:27;;;;;;;0.60;0.60;;;;;;;;;;1855056;77;26563;-32
2021/12/08 09:36:55;;;;;;;1.25;0.57;;;;;;;;;;1833347;77;26353;-33
2021/12/08 09:39:24;;;;;;;3.75;0.70;;;;;;;;;;1820533;78;26289;-31
2021/12/08 09:41:56;;;;;;;0.50;0.50;;;;;;;;;;1797698;77;26726;-36
2021/12/08 09:44:25;;;;;;;0.68;0.57;;;;;;;;;;1854753;76;26273;-34
2021/12/08 09:46:53;;;;;;;0.60;0.60;;;;;;;;;;1856341;77;26260;-33
2021/12/08 09:49:26;;;;;;;0.60;0.60;;;;;;;;;;1811383;77;26267;-35
2021/12/08 09:51:54;;;;;;;0.57;0.57;;;;;;;;;;1817163;77;26350;-38
2021/12/08 09:54:22;;;;;;;0.57;0.57;;;;;;;;;;1837942;77;26268;-34
2021/12/08 09:56:52;;;;;;;0.60;0.60;;;;;;;;;;1836892;77;26272;-35
2021/12/08 09:59:19;;;;;;;0.40;0.40;;;;;;;;;;1837904;77;26260;-32
2021/12/08 10:01:48;;;;;;;0.55;0.55;;;;;;;;;;1833711;77;26261;-32
2021/12/08 10:04:16;;;;;;;0.50;0.50;;;;;;;;;;1849617;77;26324;-34
2021/12/08 10:06:49;;;;;;;0.50;0.50;;;;;;;;;;1830415;77;26340;-35
2021/12/08 10:09:13;;;;;;;0.40;0.40;;;;;;;;;;1828475;77;26288;-34
2021/12/08 10:11:41;;;;;;;0.60;0.60;;;;;;;;;;1822435;77;26327;-37
2021/12/08 10:14:08;;;;;;;1.12;0.55;;;;;;;;;;1840248;77;26728;-38
2021/12/08 10:16:36;;;;;;;0.65;0.50;;;;;;;;;;1833481;77;26260;-36
2021/12/08 10:19:05;;;;;;;0.70;0.70;;;;;;;;;;1827297;77;26280;-30
2021/12/08 10:21:36;;;;;;;0.50;0.50;;;;;;;;;;1828947;77;26726;-31
2021/12/08 10:24:05;;;;;;;0.60;0.60;;;;;;;;;;1824479;77;26285;-32
2021/12/08 10:26:33;;;;;;;1.32;0.57;;;;;;;;;;1820356;77;26309;-37
2021/12/08 10:29:01;;;;;;;0.60;0.60;;;;;;;;;;1831272;77;26209;-37
2021/12/08 10:31:31;;;;;;;0.70;0.70;;;;;;;;;;1834203;77;26299;-37
2021/12/08 10:34:06;;;;;;;0.50;0.50;;;;;;;;;;1838239;77;26819;-36
2021/12/08 10:36:49;;;;;;;0.53;0.53;;;;;;;;;;1832080;77;26340;-37
2021/12/08 10:39:21;;;;;;;0.60;0.60;;;;;;;;;;1831080;77;26681;-36
2021/12/08 10:41:52;;;;;;;0.70;0.70;;;;;;;;;;1830825;77;26565;-30
2021/12/08 10:44:24;;;;;;;1.02;0.50;;;;;;;;;;1830032;77;26327;-34
2021/12/08 10:46:54;;;;;;;0.60;0.60;;;;;;;;;;1834737;77;26288;-37
2021/12/08 10:54:39;;;;;;;0.50;0.50;;;;;;;;;;1822283;77;28190;-38
2021/12/08 10:57:20;;;;;;;0.70;0.60;;;;;;;;;;1822761;77;28202;-34
2021/12/08 10:59:55;;;;;;;0.62;0.62;;;;;;;;;;1823448;77;26516;-34
2021/12/08 11:02:40;;;;;;;0.50;0.50;;;;;;;;;;1834550;77;26339;-33
2021/12/08 11:05:09;;;;;;;0.62;0.62;;;;;;;;;;1824190;77;26339;-32
2021/12/08 11:07:37;;;;;;;0.60;0.60;;;;;;;;;;1819141;77;26304;-30
2021/12/08 11:10:17;;;;;;;0.60;0.60;;;;;;;;;;1833033;77;26729;-33
2021/12/08 11:12:44;;;;;;;0.68;0.68;;;;;;;;;;1828306;77;26712;-33
2021/12/08 11:15:21;;;;;;;0.53;0.53;;;;;;;;;;1817300;77;28288;-32
2021/12/08 11:17:49;;;;;;;0.60;0.60;;;;;;;;;;1833879;77;26370;-32
2021/12/08 11:20:18;;;;;;;0.55;0.55;;;;;;;;;;1836025;77;26332;-32
2021/12/08 11:22:48;;;;;;;0.50;0.50;;;;;;;;;;1832899;77;26292;-31
2021/12/08 11:25:23;;;;;;;0.50;0.50;;;;;;;;;;1832785;77;26376;-33
2021/12/08 11:27:49;;;;;;;0.50;0.50;;;;;;;;;;1837938;77;26662;-33
2021/12/08 11:30:22;;;;;;;0.55;0.55;;;;;;;;;;1840705;77;26265;-31
2021/12/08 11:32:47;;;;;;;0.60;0.60;;;;;;;;;;1830460;77;26277;-31
2021/12/08 11:35:21;;;;;;;0.70;0.70;;;;;;;;;;1825962;77;26257;-34
2021/12/08 11:37:59;;;;;;;0.50;0.50;;;;;;;;;;1828907;77;26515;-32
2021/12/08 11:40:27;;;;;;;0.60;0.60;;;;;;;;;;1824296;77;26871;-34
2021/12/08 11:42:54;;;;;;;0.60;0.60;;;;;;;;;;1827447;77;26307;-33
2021/12/08 11:45:22;;;;;;;0.68;0.68;;;;;;;;;;1827151;77;26295;-33
2021/12/08 11:47:49;;;;;;;0.40;0.40;;;;;;;;;;1825927;77;26276;-38
2021/12/08 11:50:21;;;;;;;1.05;0.60;;;;;;;;;;1831935;77;26759;-35
2021/12/08 11:52:48;;;;;;;1.00;0.68;;;;;;;;;;1835440;77;26292;-35
2021/12/08 11:55:17;;;;;;;0.60;0.60;;;;;;;;;;1834870;77;26277;-37
2021/12/08 11:57:47;;;;;;;0.40;0.40;;;;;;;;;;1839142;77;26868;-36
2021/12/08 12:00:26;;;;;;;0.50;0.50;;;;;;;;;;1827762;77;26280;-38
2021/12/08 12:03:00;;;;;;;0.70;0.70;;;;;;;;;;1820773;77;26361;-33
2021/12/08 12:05:29;;;;;;;0.60;0.60;;;;;;;;;;1840204;77;26637;-33
2021/12/08 12:07:57;;;;;;;1.72;0.80;;;;;;;;;;1839162;77;26398;-36
2021/12/08 12:10:25;;;;;;;0.62;0.62;;;;;;;;;;1840827;77;26346;-31
2021/12/08 12:12:53;;;;;;;11.08;1.90;;;;;;;;;;1841803;77;26221;-31
2021/12/08 12:15:21;;;;;;;0.70;0.70;;;;;;;;;;1841705;77;26394;-32
2021/12/08 12:17:49;;;;;;;0.50;0.50;;;;;;;;;;1834966;77;26213;-32
2021/12/08 12:20:26;;;;;;;0.70;0.70;;;;;;;;;;1838135;77;26292;-35
2021/12/08 12:23:12;;;;;;;0.88;0.60;;;;;;;;;;1839717;77;26276;-34
2021/12/08 12:25:43;;;;;;;0.62;0.60;;;;;;;;;;1831195;77;26264;-29
2021/12/08 12:28:30;;;;;;;0.70;0.70;;;;;;;;;;1825154;77;26811;-34
2021/12/08 12:31:08;;;;;;;1.85;0.70;;;;;;;;;;1836319;77;26264;-37
2021/12/08 12:33:43;;;;;;;0.60;0.60;;;;;;;;;;1833874;77;26272;-32
2021/12/08 12:36:30;;;;;;;0.72;0.70;;;;;;;;;;1829720;77;26344;-32
2021/12/08 12:39:17;;;;;;;0.70;0.70;;;;;;;;;;1831297;77;26798;-34
2021/12/08 12:41:45;;;;;;;1.10;0.78;;;;;;;;;;1824740;77;26308;-35
2021/12/08 12:44:20;;;;;;;0.70;0.70;;;;;;;;;;1827071;77;26268;-34
2021/12/08 12:47:13;;;;;;;0.60;0.60;;;;;;;;;;1834024;77;26335;-29
2021/12/08 12:49:37;;;;;;;0.98;0.70;;;;;;;;;;1837017;77;26358;-30
2021/12/08 12:52:06;;;;;;;0.75;0.60;;;;;;;;;;1835738;77;26394;-30
2021/12/08 12:54:34;;;;;;;0.75;0.75;;;;;;;;;;1849089;77;26835;-29
2021/12/08 12:57:07;;;;;;;0.70;0.70;;;;;;;;;;1841343;77;26269;-29
2021/12/08 12:59:39;;;;;;;0.70;0.70;;;;;;;;;;1835836;77;26355;-33
2021/12/08 13:02:08;;;;;;;0.60;0.60;;;;;;;;;;1838986;77;26945;-32
2021/12/08 13:04:37;;;;;;;0.60;0.60;;;;;;;;;;1822988;77;26301;-32
2021/12/08 13:07:05;;;;;;;0.70;0.70;;;;;;;;;;1822237;77;26378;-33
2021/12/08 13:09:35;;;;;;;0.93;0.90;;;;;;;;;;1836679;77;26257;-32
2021/12/08 13:12:07;;;;;;;0.60;0.60;;;;;;;;;;1836205;77;26300;-37
2021/12/08 13:14:35;;;;;;;0.60;0.60;;;;;;;;;;1838808;77;26273;-32
2021/12/08 13:17:09;;;;;;;0.78;0.78;;;;;;;;;;1830828;77;26688;-33
2021/12/08 13:19:41;;;;;;;0.70;0.70;;;;;;;;;;1848956;77;26275;-31
2021/12/08 13:22:09;;;;;;;0.82;0.70;;;;;;;;;;1831869;77;26291;-33
2021/12/08 13:24:40;;;;;;;0.60;0.60;;;;;;;;;;1834892;77;26337;-33
2021/12/08 13:27:12;;;;;;;0.70;0.70;;;;;;;;;;1828223;77;26351;-33
2021/12/08 13:29:49;;;;;;;0.60;0.60;;;;;;;;;;1828590;77;26260;-33
2021/12/08 13:32:16;;;;;;;0.50;0.50;;;;;;;;;;1838845;77;27004;-31
2021/12/08 13:34:47;;;;;;;0.50;0.50;;;;;;;;;;1834742;77;26272;-31
2021/12/08 13:37:19;;;;;;;0.60;0.60;;;;;;;;;;1844494;77;26257;-33
2021/12/08 13:39:48;;;;;;;0.60;0.60;;;;;;;;;;1845522;77;26372;-36
2021/12/08 13:42:16;;;;;;;0.70;0.70;;;;;;;;;;1841801;77;26268;-34
2021/12/08 13:44:51;;;;;;;0.50;0.50;;;;;;;;;;1833180;77;26538;-33
2021/12/08 13:47:29;;;;;;;0.60;0.60;;;;;;;;;;1821473;77;26265;-35
2021/12/08 13:49:57;;;;;;;0.50;0.50;;;;;;;;;;1840374;77;26275;-32
2021/12/08 13:52:32;;;;;;;0.50;0.50;;;;;;;;;;1829734;77;26272;-32
2021/12/08 13:55:00;;;;;;;0.55;0.55;;;;;;;;;;1831339;77;26716;-35
2021/12/08 13:57:32;;;;;;;0.50;0.50;;;;;;;;;;1834692;77;26785;-32
2021/12/08 14:00:01;;;;;;;0.75;0.75;;;;;;;;;;1836540;77;26257;-38
2021/12/08 14:02:39;;;;;;;1.98;0.45;;;;;;;;;;1841712;77;26403;-33
2021/12/08 14:05:20;;;;;;;0.50;0.50;;;;;;;;;;1836068;77;26394;-36
2021/12/08 14:08:04;;;;;;;0.50;0.50;;;;;;;;;;1835204;77;26277;-33
2021/12/08 14:10:37;;;;;;;0.40;0.40;;;;;;;;;;1835580;77;26288;-35
2021/12/08 14:13:08;;;;;;;0.42;0.42;;;;;;;;;;1816285;77;26221;-37
2021/12/08 14:15:36;;;;;;;0.42;0.42;;;;;;;;;;1822910;77;26851;-31
2021/12/08 14:18:17;;;;;;;0.50;0.50;;;;;;;;;;1828187;77;26756;-36
2021/12/08 14:20:49;;;;;;;0.50;0.50;;;;;;;;;;1831447;77;26788;-31
2021/12/08 14:23:17;;;;;;;0.40;0.40;;;;;;;;;;1833623;77;26264;-31
2021/12/08 14:25:46;;;;;;;0.37;0.37;;;;;;;;;;1829693;77;26670;-38
2021/12/08 14:28:39;;;;;;;0.50;0.50;;;;;;;;;;1831507;77;26689;-32
2021/12/08 14:31:11;;;;;;;0.50;0.50;;;;;;;;;;1842029;77;26272;-35
2021/12/08 14:33:39;;;;;;;0.40;0.40;;;;;;;;;;1826327;77;26292;-34
2021/12/08 14:36:08;;;;;;;0.40;0.40;;;;;;;;;;1830216;77;26354;-39
2021/12/08 14:38:38;;;;;;;0.50;0.50;;;;;;;;;;1827436;77;26329;-30
2021/12/08 14:41:21;;;;;;;0.40;0.40;;;;;;;;;;1818714;77;26239;-34
2021/12/08 14:43:52;;;;;;;0.50;0.50;;;;;;;;;;1828159;77;26283;-34
2021/12/08 14:46:20;;;;;;;0.42;0.42;;;;;;;;;;1823931;77;26355;-31
2021/12/08 14:48:57;;;;;;;0.57;0.57;;;;;;;;;;1827258;77;26375;-33
2021/12/08 14:51:25;;;;;;;0.40;0.40;;;;;;;;;;1832558;77;26621;-34
2021/12/08 14:53:53;;;;;;;0.40;0.40;;;;;;;;;;1840233;77;26439;-32
2021/12/08 14:56:21;;;;;;;0.40;0.40;;;;;;;;;;1821011;77;26253;-31
2021/12/08 14:58:50;;;;;;;0.45;0.42;;;;;;;;;;1826084;77;26566;-30
2021/12/08 15:01:18;;;;;;;0.70;0.70;;;;;;;;;;1822987;77;26208;-32
2021/12/08 15:03:51;;;;;;;4.87;0.90;;;;;;;;;;1824717;77;26396;-30
2021/12/08 15:06:19;;;;;;;3.95;1.10;;;;;;;;;;1829153;77;26296;-31
2021/12/08 15:08:46;;;;;;;1.47;0.90;;;;;;;;;;1834035;77;26331;-32
2021/12/08 15:11:21;;;;;;;2.47;1.00;;;;;;;;;;1827155;77;26739;-33
2021/12/08 15:13:49;;;;;;;3.35;0.90;;;;;;;;;;1834145;77;26397;-31
2021/12/08 15:16:20;;;;;;;1.32;0.90;;;;;;;;;;1827281;77;26253;-32
2021/12/08 15:18:49;;;;;;;1.40;1.00;;;;;;;;;;1839097;77;26308;-30
2021/12/08 15:21:25;;;;;;;2.22;1.00;;;;;;;;;;1836120;77;26796;-35
2021/12/08 15:24:00;;;;;;;2.42;0.90;;;;;;;;;;1833202;77;26221;-31
2021/12/08 15:26:24;;;;;;;1.65;0.80;;;;;;;;;;1836592;77;26245;-33
2021/12/08 15:28:51;;;;;;;1.75;1.07;;;;;;;;;;1831216;77;26269;-31
2021/12/08 15:31:20;;;;;;;0.90;0.90;;;;;;;;;;1832774;77;26335;-32
2021/12/08 15:33:48;;;;;;;1.62;0.80;;;;;;;;;;1827699;77;26253;-32
2021/12/08 15:36:17;;;;;;;1.82;0.80;;;;;;;;;;1844519;77;26378;-35
2021/12/08 15:38:46;;;;;;;1.98;0.78;;;;;;;;;;1835136;77;26272;-37
2021/12/08 15:41:15;;;;;;;1.35;0.65;;;;;;;;;;1838715;77;26269;-32
2021/12/08 15:43:42;;;;;;;0.80;0.80;;;;;;;;;;1837981;77;26314;-31
2021/12/08 15:46:11;;;;;;;3.58;1.05;;;;;;;;;;1836567;77;26330;-31
2021/12/08 15:48:39;;;;;;;0.72;0.70;;;;;;;;;;1844601;77;26312;-29
2021/12/08 15:51:08;;;;;;;2.10;0.70;;;;;;;;;;1831535;77;26291;-30